Time;durP1;ratioP1;P1;durP2;ratioP2;P2;SDS_P1;SDS_P2;PMS_P1;PMS_P2;Temp;Humidity;BMP_temperature;BMP_pressure;BME280_temperature;BME280_humidity;BME280_pressure;Samples;Min_cycle;Max_cycle;Signal;HPM_P1;HPM_P2
2023/03/28 00:02:03;;;;;;;5.63;1.35;;;1.70;99.90;;;;;;5142778;28;20052;-70
2023/03/28 00:04:36;;;;;;;1.00;1.00;;;1.70;99.90;;;;;;5163519;28;20377;-68
2023/03/28 00:07:14;;;;;;;1.13;1.08;;;1.80;99.90;;;;;;5158180;28;20049;-68
2023/03/28 00:10:04;;;;;;;2.78;1.20;;;1.80;99.90;;;;;;5158757;28;20042;-70
2023/03/28 00:12:35;;;;;;;2.55;1.25;;;1.70;99.90;;;;;;5154814;28;20495;-66
2023/03/28 00:15:09;;;;;;;1.40;1.30;;;1.80;99.90;;;;;;5140780;28;20040;-70
2023/03/28 00:17:45;;;;;;;2.05;1.20;;;1.80;99.90;;;;;;5155939;28;20222;-67
2023/03/28 00:20:19;;;;;;;1.30;1.20;;;1.90;99.90;;;;;;5141948;28;20030;-68
2023/03/28 00:22:50;;;;;;;0.98;0.90;;;1.80;99.90;;;;;;5178889;28;20026;-66
2023/03/28 00:25:22;;;;;;;3.97;1.73;;;1.70;99.90;;;;;;5141947;28;20038;-64
2023/03/28 00:27:58;;;;;;;3.05;1.35;;;1.70;99.90;;;;;;5176196;28;20037;-68
2023/03/28 00:30:29;;;;;;;2.10;1.30;;;1.70;99.90;;;;;;5156352;28;20388;-69
2023/03/28 00:33:09;;;;;;;1.13;1.02;;;1.70;99.90;;;;;;5176727;28;20021;-71
2023/03/28 00:35:45;;;;;;;2.20;1.40;;;1.70;99.90;;;;;;5176280;28;20036;-66
2023/03/28 00:38:18;;;;;;;1.35;1.10;;;1.70;99.90;;;;;;5175765;28;20038;-69
2023/03/28 00:40:54;;;;;;;0.93;0.82;;;1.80;99.90;;;;;;5155521;28;20044;-70
2023/03/28 00:43:47;;;;;;;1.67;1.10;;;1.80;99.90;;;;;;5155867;28;20342;-64
2023/03/28 00:46:29;;;;;;;1.40;1.30;;;1.80;99.90;;;;;;5137919;28;20415;-69
2023/03/28 00:49:12;;;;;;;1.17;0.95;;;1.70;99.90;;;;;;5174102;28;20040;-68
2023/03/28 00:52:01;;;;;;;3.08;1.23;;;1.80;99.90;;;;;;5173796;28;20429;-69
2023/03/28 00:54:41;;;;;;;1.25;1.15;;;1.80;99.90;;;;;;5153981;28;20026;-70
2023/03/28 00:57:16;;;;;;;3.80;1.20;;;1.80;99.90;;;;;;5160553;28;20029;-65
2023/03/28 00:59:47;;;;;;;2.13;1.15;;;1.80;99.90;;;;;;5155468;28;20697;-66
2023/03/28 01:02:20;;;;;;;1.08;0.98;;;1.70;99.90;;;;;;5253580;23;20258;-67
2023/03/28 01:04:59;;;;;;;2.22;1.27;;;1.80;99.90;;;;;;5175780;28;20057;-68
2023/03/28 01:07:38;;;;;;;1.05;1.02;;;1.80;99.90;;;;;;5181887;28;20033;-68
2023/03/28 01:10:10;;;;;;;1.35;0.90;;;1.70;99.90;;;;;;5188355;28;20056;-67
2023/03/28 01:12:42;;;;;;;1.38;1.27;;;1.70;99.90;;;;;;5161237;28;20049;-67
2023/03/28 01:15:17;;;;;;;1.20;1.00;;;1.80;99.90;;;;;;5158244;28;20047;-68
2023/03/28 01:17:49;;;;;;;;;;;1.80;99.90;;;;;;5197152;28;20048;-68
2023/03/28 01:20:46;;;;;;;1.05;1.05;;;1.70;99.90;;;;;;5202825;28;20147;-65
2023/03/28 01:23:17;;;;;;;1.20;1.10;;;1.70;99.90;;;;;;5185588;28;20063;-69
2023/03/28 01:26:13;;;;;;;1.98;1.20;;;1.70;99.90;;;;;;5178269;28;20473;-68
2023/03/28 01:29:21;;;;;;;1.10;1.00;;;1.70;99.90;;;;;;5157010;28;20058;-68
2023/03/28 01:32:26;;;;;;;2.83;1.20;;;1.70;99.90;;;;;;5184207;28;20226;-72
2023/03/28 01:35:18;;;;;;;3.60;1.20;;;1.70;99.90;;;;;;5176927;28;20034;-70
2023/03/28 01:38:19;;;;;;;0.88;0.85;;;1.70;99.90;;;;;;5193512;28;20033;-69
2023/03/28 01:40:50;;;;;;;1.25;1.02;;;1.70;99.90;;;;;;5193909;28;20047;-67
2023/03/28 01:43:47;;;;;;;1.25;1.15;;;1.70;99.90;;;;;;5194275;28;20056;-66
2023/03/28 01:46:35;;;;;;;1.70;1.20;;;1.70;99.90;;;;;;5208713;28;20033;-69
2023/03/28 01:49:33;;;;;;;1.30;1.05;;;1.70;99.90;;;;;;5152553;28;20071;-70
2023/03/28 01:52:31;;;;;;;1.10;1.02;;;1.70;99.90;;;;;;5169638;28;20037;-71
2023/03/28 01:55:29;;;;;;;2.15;1.20;;;1.70;99.90;;;;;;5151381;28;20025;-68
2023/03/28 01:58:22;;;;;;;2.45;1.40;;;1.70;99.90;;;;;;5190833;28;20048;-69
2023/03/28 02:01:08;;;;;;;1.55;0.93;;;1.70;99.90;;;;;;5168279;28;20042;-68
2023/03/28 02:03:50;;;;;;;1.48;1.20;;;1.70;99.90;;;;;;5195357;28;20618;-69
2023/03/28 02:06:23;;;;;;;1.90;1.50;;;1.70;99.90;;;;;;5180991;28;20060;-68
2023/03/28 02:08:57;;;;;;;1.48;1.38;;;1.80;99.90;;;;;;5159191;28;20056;-67
2023/03/28 02:11:34;;;;;;;3.17;1.65;;;1.70;99.90;;;;;;5174918;28;20340;-67
2023/03/28 02:14:16;;;;;;;1.45;1.25;;;1.70;99.90;;;;;;5175174;28;20033;-70
2023/03/28 02:16:53;;;;;;;1.52;1.42;;;1.60;99.90;;;;;;5173337;28;20035;-68
2023/03/28 02:19:25;;;;;;;1.67;1.58;;;1.60;99.90;;;;;;5175735;28;20052;-65
2023/03/28 02:22:09;;;;;;;1.48;1.38;;;1.60;99.90;;;;;;5159680;28;20029;-67
2023/03/28 02:24:42;;;;;;;1.48;1.38;;;1.60;99.90;;;;;;5192748;28;20063;-68
2023/03/28 02:27:19;;;;;;;2.50;1.50;;;1.50;99.90;;;;;;5162222;28;20037;-68
2023/03/28 02:29:54;;;;;;;1.40;1.30;;;1.50;99.90;;;;;;5176127;28;20393;-70
2023/03/28 02:32:25;;;;;;;1.63;1.30;;;1.50;99.90;;;;;;5157487;28;20037;-65
2023/03/28 02:35:01;;;;;;;7.90;1.85;;;1.50;99.90;;;;;;5175781;28;20025;-65
2023/03/28 02:37:48;;;;;;;2.35;1.90;;;1.50;99.90;;;;;;5159344;28;20041;-67
2023/03/28 02:40:56;;;;;;;2.45;1.80;;;1.60;99.90;;;;;;5159151;28;20075;-66
2023/03/28 02:43:45;;;;;;;3.33;2.08;;;1.50;99.90;;;;;;5173406;28;20022;-67
2023/03/28 02:46:39;;;;;;;2.05;1.63;;;1.50;99.90;;;;;;5170783;28;20029;-68
2023/03/28 02:49:42;;;;;;;5.70;1.90;;;1.50;99.90;;;;;;5159540;28;20063;-69
2023/03/28 02:52:19;;;;;;;1.92;1.80;;;1.50;99.90;;;;;;5172552;28;20037;-68
2023/03/28 02:54:57;;;;;;;2.53;1.83;;;1.50;99.90;;;;;;5157577;28;20234;-66
2023/03/28 02:57:39;;;;;;;3.50;1.75;;;1.50;99.90;;;;;;5174290;28;20571;-66
2023/03/28 03:00:21;;;;;;;3.78;1.98;;;1.60;99.90;;;;;;5179565;28;20037;-66
2023/03/28 03:02:56;;;;;;;3.53;1.90;;;1.60;99.90;;;;;;5175451;28;20037;-68
2023/03/28 03:05:27;;;;;;;2.42;1.77;;;1.50;99.90;;;;;;5148168;28;20045;-71
2023/03/28 03:07:58;;;;;;;4.38;1.80;;;1.40;99.90;;;;;;5195242;28;20037;-69
2023/03/28 03:10:30;;;;;;;2.38;2.00;;;1.40;99.90;;;;;;5177744;28;20045;-70
2023/03/28 03:13:09;;;;;;;3.50;2.00;;;1.60;99.90;;;;;;5157744;28;20060;-69
2023/03/28 03:15:45;;;;;;;3.30;1.63;;;1.60;99.90;;;;;;5194283;28;20036;-67
2023/03/28 03:18:16;;;;;;;1.90;1.55;;;1.50;99.90;;;;;;5195491;28;20035;-72
2023/03/28 03:20:53;;;;;;;1.73;1.52;;;1.60;99.90;;;;;;5196629;28;20035;-70
2023/03/28 03:23:30;;;;;;;2.05;1.58;;;1.60;99.90;;;;;;5170498;28;20052;-70
2023/03/28 03:26:09;;;;;;;1.58;1.45;;;1.50;99.90;;;;;;5163383;28;20041;-64
2023/03/28 03:28:40;;;;;;;1.48;1.35;;;1.60;99.90;;;;;;5161474;28;20052;-68
2023/03/28 03:31:18;;;;;;;3.35;1.75;;;1.60;99.90;;;;;;5176063;28;20093;-69
2023/03/28 03:33:49;;;;;;;4.53;2.10;;;1.50;99.90;;;;;;5196013;28;20036;-67
2023/03/28 03:36:25;;;;;;;1.73;1.63;;;1.50;99.90;;;;;;5162012;28;20034;-67
2023/03/28 03:38:57;;;;;;;5.30;1.83;;;1.50;99.90;;;;;;5162876;28;20261;-69
2023/03/28 03:41:29;;;;;;;1.88;1.48;;;1.40;99.90;;;;;;5146605;28;20387;-68
2023/03/28 03:44:07;;;;;;;1.95;1.70;;;1.40;99.90;;;;;;5173949;28;20143;-67
2023/03/28 03:46:39;;;;;;;2.78;1.92;;;1.50;99.90;;;;;;5191695;28;20041;-63
2023/03/28 03:49:12;;;;;;;1.67;1.40;;;1.50;99.90;;;;;;5196732;28;20041;-67
2023/03/28 03:51:46;;;;;;;2.70;2.00;;;1.50;99.90;;;;;;5164196;28;20036;-69
2023/03/28 03:54:24;;;;;;;1.52;1.42;;;1.50;99.90;;;;;;5178842;28;20282;-68
2023/03/28 03:56:56;;;;;;;1.80;1.52;;;1.50;99.90;;;;;;5193535;28;20041;-68
2023/03/28 03:59:30;;;;;;;2.33;1.67;;;1.50;99.90;;;;;;5147293;28;20049;-65
2023/03/28 04:02:01;;;;;;;2.47;1.67;;;1.50;99.90;;;;;;5177450;28;20041;-67
2023/03/28 04:04:35;;;;;;;7.22;1.67;;;1.50;99.90;;;;;;5167291;28;20057;-69
2023/03/28 04:07:07;;;;;;;2.00;1.90;;;1.50;99.90;;;;;;5142541;28;20048;-69
2023/03/28 04:09:40;;;;;;;1.83;1.55;;;1.50;99.90;;;;;;5177920;28;20055;-64
2023/03/28 04:12:14;;;;;;;1.52;1.42;;;1.50;99.90;;;;;;5178552;28;20064;-65
2023/03/28 04:14:52;;;;;;;1.60;1.50;;;1.50;99.90;;;;;;5173441;28;20052;-69
2023/03/28 04:17:28;;;;;;;3.05;1.35;;;1.50;99.90;;;;;;5174442;28;20036;-67
2023/03/28 04:20:01;;;;;;;2.13;1.65;;;1.50;99.90;;;;;;5165344;28;20440;-67
2023/03/28 04:22:34;;;;;;;2.58;1.80;;;1.40;99.90;;;;;;5152961;28;20033;-67
2023/03/28 04:25:10;;;;;;;5.32;2.22;;;1.40;99.90;;;;;;5162587;28;20041;-68
2023/03/28 04:27:45;;;;;;;1.05;0.98;;;1.40;99.90;;;;;;5197443;28;20051;-67
2023/03/28 04:30:20;;;;;;;1.35;1.10;;;1.40;99.90;;;;;;5160932;28;20059;-70
2023/03/28 04:32:53;;;;;;;2.17;1.40;;;1.40;99.90;;;;;;5197699;28;20546;-64
2023/03/28 04:35:24;;;;;;;1.52;1.15;;;1.40;99.90;;;;;;5179883;28;20025;-67
2023/03/28 04:37:56;;;;;;;0.82;0.80;;;1.40;99.90;;;;;;5180895;28;20029;-70
2023/03/28 04:40:28;;;;;;;2.95;1.50;;;1.40;99.90;;;;;;5218933;28;20524;-70
2023/03/28 04:43:01;;;;;;;1.38;1.10;;;1.40;99.90;;;;;;5189593;28;20044;-69
2023/03/28 04:45:35;;;;;;;2.05;1.15;;;1.50;99.90;;;;;;5132103;28;20060;-69
2023/03/28 04:48:09;;;;;;;1.02;0.93;;;1.60;99.90;;;;;;5203005;28;20060;-70
2023/03/28 04:50:48;;;;;;;3.75;1.40;;;1.50;99.90;;;;;;5190942;28;20037;-67
2023/03/28 04:53:22;;;;;;;1.45;0.95;;;1.50;99.90;;;;;;5167100;28;20033;-70
2023/03/28 04:55:54;;;;;;;1.00;1.00;;;1.50;99.90;;;;;;5168943;28;20030;-71
2023/03/28 04:58:26;;;;;;;0.93;0.90;;;1.50;99.90;;;;;;5172882;28;20041;-69
2023/03/28 05:01:02;;;;;;;2.25;0.98;;;1.60;99.90;;;;;;5200030;28;20037;-70
2023/03/28 05:03:33;;;;;;;1.17;0.90;;;1.70;99.90;;;;;;5182648;28;20333;-71
2023/03/28 05:06:07;;;;;;;1.30;1.20;;;1.80;99.90;;;;;;5177659;28;20056;-71
2023/03/28 05:08:39;;;;;;;0.82;0.82;;;1.90;99.90;;;;;;5169950;28;20049;-70
2023/03/28 05:11:15;;;;;;;0.98;0.80;;;2.10;99.90;;;;;;5202927;28;20033;-70
2023/03/28 05:13:47;;;;;;;1.10;1.00;;;2.20;99.90;;;;;;5203533;28;20029;-70
2023/03/28 05:16:23;;;;;;;1.08;1.02;;;2.30;99.90;;;;;;5197617;28;20037;-71
2023/03/28 05:18:57;;;;;;;2.05;1.20;;;2.40;99.90;;;;;;5167365;28;20037;-71
2023/03/28 05:21:28;;;;;;;1.58;1.00;;;2.50;99.90;;;;;;5164492;28;20422;-67
2023/03/28 05:23:59;;;;;;;1.17;0.95;;;2.50;99.90;;;;;;5189125;28;20032;-69
2023/03/28 05:26:31;;;;;;;1.75;1.08;;;2.60;99.90;;;;;;5174835;28;20342;-70
2023/03/28 05:29:02;;;;;;;1.67;1.20;;;2.70;99.90;;;;;;5159660;28;20506;-67
2023/03/28 05:31:34;;;;;;;1.70;1.20;;;2.80;99.90;;;;;;5174615;28;20045;-68
2023/03/28 05:34:08;;;;;;;1.83;1.23;;;2.70;99.90;;;;;;5177202;28;20616;-68
2023/03/28 05:36:42;;;;;;;1.20;0.95;;;2.70;99.90;;;;;;5160148;28;20037;-68
2023/03/28 05:39:16;;;;;;;0.85;0.82;;;2.80;99.90;;;;;;5175746;28;20029;-70
2023/03/28 05:41:47;;;;;;;1.30;1.05;;;2.90;99.90;;;;;;5176140;28;20037;-68
2023/03/28 05:44:21;;;;;;;1.38;1.27;;;3.00;99.90;;;;;;5158748;28;20041;-69
2023/03/28 05:46:55;;;;;;;1.48;1.20;;;3.20;99.90;;;;;;5173956;28;20026;-67
2023/03/28 05:49:32;;;;;;;3.83;1.80;;;3.30;99.90;;;;;;5175507;28;20057;-65
2023/03/28 05:52:07;;;;;;;1.88;1.60;;;3.30;99.90;;;;;;5175503;28;20041;-70
2023/03/28 05:54:41;;;;;;;2.20;1.40;;;3.20;99.90;;;;;;5159261;28;20041;-69
2023/03/28 05:57:12;;;;;;;1.70;1.60;;;3.10;99.90;;;;;;5173971;28;20045;-69
2023/03/28 05:59:53;;;;;;;1.20;1.10;;;3.10;99.90;;;;;;5175693;28;20033;-65
2023/03/28 06:02:28;;;;;;;3.10;1.17;;;3.20;99.90;;;;;;5160460;28;20053;-68
2023/03/28 06:04:59;;;;;;;1.88;1.35;;;3.30;99.90;;;;;;5152044;28;20037;-68
2023/03/28 06:07:30;;;;;;;1.20;1.00;;;3.30;99.90;;;;;;5188885;28;20032;-71
2023/03/28 06:10:03;;;;;;;1.00;0.90;;;3.30;99.90;;;;;;5194333;28;20048;-71
2023/03/28 06:12:34;;;;;;;2.17;1.45;;;3.20;99.90;;;;;;5176386;28;20238;-69
2023/03/28 06:15:13;;;;;;;2.28;1.17;;;3.10;99.90;;;;;;5173810;28;20576;-71
2023/03/28 06:17:44;;;;;;;3.42;1.27;;;3.10;99.90;;;;;;5174960;28;20342;-70
2023/03/28 06:20:20;;;;;;;1.73;1.50;;;3.10;99.90;;;;;;5193116;28;20018;-70
2023/03/28 06:22:54;;;;;;;2.22;1.27;;;3.20;99.90;;;;;;5194005;28;20036;-70
2023/03/28 06:25:33;;;;;;;1.35;1.17;;;3.30;99.90;;;;;;5193207;28;20032;-70
2023/03/28 06:28:07;;;;;;;1.65;1.15;;;3.50;99.90;;;;;;5176165;28;20215;-70
2023/03/28 06:30:44;;;;;;;1.33;1.23;;;3.50;99.90;;;;;;5190944;28;20040;-71
2023/03/28 06:33:15;;;;;;;3.50;1.10;;;3.50;99.90;;;;;;5194122;28;20033;-67
2023/03/28 06:35:49;;;;;;;2.15;1.10;;;3.60;99.90;;;;;;5176619;28;20508;-70
2023/03/28 06:38:20;;;;;;;1.90;1.40;;;3.70;99.90;;;;;;5176318;28;20422;-69
2023/03/28 06:40:54;;;;;;;1.83;1.30;;;3.70;99.90;;;;;;5163097;28;20044;-67
2023/03/28 06:43:25;;;;;;;0.98;0.98;;;3.60;99.90;;;;;;5159144;28;20034;-67
2023/03/28 06:46:00;;;;;;;1.77;1.05;;;3.60;99.90;;;;;;5156550;28;20032;-71
2023/03/28 06:48:31;;;;;;;1.30;1.20;;;3.70;99.90;;;;;;5142622;28;20294;-68
2023/03/28 06:51:05;;;;;;;1.95;1.42;;;3.70;99.90;;;;;;5182467;28;20033;-68
2023/03/28 06:53:36;;;;;;;4.85;1.05;;;3.80;99.90;;;;;;5179013;28;20029;-66
2023/03/28 06:56:08;;;;;;;0.93;0.93;;;3.90;99.90;;;;;;5174586;28;20033;-68
2023/03/28 06:58:39;;;;;;;1.80;1.15;;;3.90;99.90;;;;;;5158403;28;20034;-67
2023/03/28 07:01:13;;;;;;;1.63;1.45;;;3.90;99.90;;;;;;5147574;28;20028;-67
2023/03/28 07:03:46;;;;;;;1.33;1.23;;;4.10;99.90;;;;;;5173407;28;20167;-66
2023/03/28 07:06:20;;;;;;;1.95;1.42;;;4.20;99.90;;;;;;5180069;28;20049;-68
2023/03/28 07:08:52;;;;;;;1.38;1.25;;;4.10;99.90;;;;;;5176751;28;20030;-67
2023/03/28 07:11:25;;;;;;;2.65;1.05;;;4.10;99.90;;;;;;5194051;28;20037;-70
2023/03/28 07:13:59;;;;;;;1.33;1.20;;;4.10;99.90;;;;;;5178911;28;20044;-70
2023/03/28 07:16:30;;;;;;;0.82;0.80;;;4.20;99.90;;;;;;5184165;28;20033;-67
2023/03/28 07:19:02;;;;;;;1.23;1.02;;;4.30;99.90;;;;;;5163076;28;20040;-68
2023/03/28 07:21:33;;;;;;;2.72;1.30;;;4.20;99.90;;;;;;5178508;28;20036;-68
2023/03/28 07:24:07;;;;;;;1.70;1.00;;;4.40;99.90;;;;;;5195343;28;20041;-68
2023/03/28 07:26:39;;;;;;;1.00;0.90;;;4.40;99.90;;;;;;5195132;28;20034;-68
2023/03/28 07:29:10;;;;;;;1.00;1.00;;;4.30;99.90;;;;;;5179386;28;20075;-71
2023/03/28 07:31:41;;;;;;;2.95;0.90;;;4.30;99.90;;;;;;5158865;28;20045;-70
2023/03/28 07:34:15;;;;;;;1.50;0.95;;;4.40;99.90;;;;;;5178419;28;20029;-68
2023/03/28 07:36:47;;;;;;;2.70;1.00;;;4.60;99.90;;;;;;5177145;28;20238;-69
2023/03/28 07:39:18;;;;;;;2.22;1.10;;;4.70;99.90;;;;;;5194930;28;20241;-66
2023/03/28 07:41:49;;;;;;;2.60;1.15;;;5.00;99.90;;;;;;5177384;28;20029;-71
2023/03/28 07:44:25;;;;;;;1.05;1.00;;;5.20;99.90;;;;;;5161842;28;20037;-71
2023/03/28 07:47:02;;;;;;;0.90;0.90;;;5.10;99.90;;;;;;5174822;28;20033;-71
2023/03/28 07:49:34;;;;;;;1.63;1.00;;;4.80;99.90;;;;;;5195571;28;20120;-69
2023/03/28 07:52:12;;;;;;;1.88;1.20;;;4.70;99.90;;;;;;5177363;28;20065;-69
2023/03/28 07:54:46;;;;;;;2.80;0.90;;;4.60;99.90;;;;;;5177504;28;20025;-68
2023/03/28 07:57:18;;;;;;;1.67;1.10;;;5.10;99.90;;;;;;5161020;28;20057;-71
2023/03/28 07:59:51;;;;;;;3.88;1.50;;;5.50;99.90;;;;;;5177758;28;20037;-68
2023/03/28 08:02:22;;;;;;;1.90;1.00;;;5.50;99.90;;;;;;5154386;28;20046;-68
2023/03/28 08:04:54;;;;;;;1.58;1.10;;;5.40;99.90;;;;;;5152138;28;20071;-69
2023/03/28 08:07:25;;;;;;;1.30;1.20;;;4.90;99.90;;;;;;5179163;28;20040;-68
2023/03/28 08:10:01;;;;;;;2.05;1.42;;;4.90;99.90;;;;;;5195103;28;20182;-70
2023/03/28 08:12:36;;;;;;;1.15;1.02;;;4.90;99.90;;;;;;5179640;28;20044;-69
2023/03/28 08:15:07;;;;;;;;;;;4.90;99.90;;;;;;5196877;28;20051;-74
2023/03/28 08:17:38;;;;;;;1.90;1.30;;;4.70;99.90;;;;;;5176853;28;19908;-71
2023/03/28 08:20:16;;;;;;;3.67;1.45;;;4.50;99.90;;;;;;5179297;28;20040;-70
2023/03/28 08:22:50;;;;;;;3.92;1.35;;;4.60;99.90;;;;;;5195747;28;20463;-71
2023/03/28 08:25:23;;;;;;;2.15;1.23;;;4.60;99.90;;;;;;5179361;28;20044;-70
2023/03/28 08:27:57;;;;;;;2.85;1.65;;;4.60;99.90;;;;;;5177855;28;20039;-69
2023/03/28 08:30:28;;;;;;;1.77;1.40;;;4.80;99.90;;;;;;5158664;28;20258;-71
2023/03/28 08:33:06;;;;;;;1.83;1.00;;;4.70;99.90;;;;;;5194556;28;20369;-71
2023/03/28 08:35:39;;;;;;;1.85;1.60;;;4.40;99.90;;;;;;5152330;28;20049;-69
2023/03/28 08:38:10;;;;;;;4.25;1.38;;;4.50;99.90;;;;;;5173028;28;20037;-71
2023/03/28 08:40:53;;;;;;;2.35;1.23;;;4.40;99.90;;;;;;5139634;28;20034;-68
2023/03/28 08:43:48;;;;;;;2.20;1.80;;;4.40;99.90;;;;;;5160943;28;20029;-69
2023/03/28 08:46:22;;;;;;;1.92;1.35;;;4.50;99.90;;;;;;5137482;28;20563;-70
2023/03/28 08:48:54;;;;;;;0.88;0.85;;;4.40;99.90;;;;;;5139183;28;20121;-67
2023/03/28 08:51:39;;;;;;;1.83;1.27;;;4.40;99.90;;;;;;5166815;28;20406;-72
2023/03/28 08:54:17;;;;;;;1.70;1.52;;;4.30;99.90;;;;;;5155008;28;20033;-70
2023/03/28 08:56:54;;;;;;;1.58;1.23;;;4.20;99.90;;;;;;5170813;28;20148;-70
2023/03/28 09:00:13;;;;;;;2.10;1.45;;;4.20;99.90;;;;;;5169446;28;20026;-72
2023/03/28 09:02:47;;;;;;;3.00;2.15;;;4.10;99.90;;;;;;5112069;28;20035;-70
2023/03/28 09:05:46;;;;;;;3.10;1.67;;;4.00;99.90;;;;;;5103520;28;20050;-70
2023/03/28 09:08:35;;;;;;;2.13;1.45;;;4.10;99.90;;;;;;5180981;28;20104;-74
2023/03/28 09:11:30;;;;;;;1.48;1.38;;;4.50;99.90;;;;;;5162621;28;20330;-69
2023/03/28 09:14:01;;;;;;;;;;;4.90;99.90;;;;;;5176537;28;20045;-70
2023/03/28 09:17:04;;;;;;;4.07;1.55;;;5.50;99.90;;;;;;5173919;28;19912;-69
2023/03/28 09:19:47;;;;;;;1.38;1.27;;;5.20;99.90;;;;;;5135758;28;20042;-71
2023/03/28 09:22:30;;;;;;;1.88;1.50;;;4.90;99.90;;;;;;5161738;28;20032;-70
2023/03/28 09:25:36;;;;;;;3.08;1.92;;;4.70;99.90;;;;;;5178049;28;20033;-70
2023/03/28 09:28:28;;;;;;;1.20;1.10;;;4.30;99.90;;;;;;5134163;28;20041;-70
2023/03/28 09:31:10;;;;;;;1.33;1.02;;;4.20;99.90;;;;;;5173135;28;20647;-70
2023/03/28 09:33:47;;;;;;;1.85;1.20;;;4.20;99.90;;;;;;5192163;28;20035;-69
2023/03/28 09:36:22;;;;;;;2.20;1.00;;;4.30;99.90;;;;;;5158964;28;20025;-68
2023/03/28 09:39:03;;;;;;;0.95;0.77;;;4.30;99.90;;;;;;5176032;28;20040;-70
2023/03/28 09:41:38;;;;;;;0.98;0.70;;;4.30;99.90;;;;;;5181701;28;20048;-70
2023/03/28 09:44:15;;;;;;;1.45;1.15;;;4.50;99.90;;;;;;5172325;28;20048;-70
2023/03/28 09:46:50;;;;;;;2.05;0.90;;;4.60;99.90;;;;;;5171459;28;20523;-70
2023/03/28 09:49:25;;;;;;;1.88;1.35;;;4.80;99.90;;;;;;5191339;28;20052;-68
2023/03/28 09:51:59;;;;;;;2.28;1.05;;;4.40;99.90;;;;;;5175627;28;20048;-72
2023/03/28 09:54:35;;;;;;;4.30;0.90;;;4.20;99.90;;;;;;5193882;28;20029;-71
2023/03/28 09:57:08;;;;;;;3.80;0.88;;;4.30;99.90;;;;;;5158292;28;20030;-71
2023/03/28 09:59:40;;;;;;;0.90;0.80;;;4.40;99.90;;;;;;5175139;28;20035;-69
2023/03/28 10:02:27;;;;;;;1.00;0.73;;;4.60;99.90;;;;;;5185798;28;20033;-70
2023/03/28 10:04:59;;;;;;;0.80;0.80;;;4.70;99.90;;;;;;5165682;28;20045;-68
2023/03/28 10:07:42;;;;;;;1.02;0.70;;;5.00;99.90;;;;;;5193135;28;20462;-67
2023/03/28 10:10:22;;;;;;;1.15;0.80;;;5.70;99.90;;;;;;5194243;28;20021;-68
2023/03/28 10:13:01;;;;;;;1.17;0.93;;;6.00;99.90;;;;;;5193014;28;20041;-67
2023/03/28 10:15:48;;;;;;;1.98;0.68;;;5.70;99.90;;;;;;5190276;28;20029;-72
2023/03/28 10:18:25;;;;;;;1.33;0.90;;;5.20;99.90;;;;;;5194019;28;20199;-71
2023/03/28 10:21:07;;;;;;;1.83;1.00;;;4.80;99.90;;;;;;5192468;28;20038;-70
2023/03/28 10:23:44;;;;;;;1.75;1.00;;;4.70;99.90;;;;;;5172249;28;20026;-70
2023/03/28 10:26:23;;;;;;;1.38;1.17;;;4.80;99.90;;;;;;5194124;28;20052;-71
2023/03/28 10:28:59;;;;;;;1.52;1.17;;;5.50;99.90;;;;;;5194899;28;20025;-69
2023/03/28 10:31:33;;;;;;;1.58;0.90;;;5.40;99.90;;;;;;5155893;28;20033;-67
2023/03/28 10:34:07;;;;;;;0.60;0.60;;;5.60;99.90;;;;;;5175641;28;20025;-71
2023/03/28 10:36:44;;;;;;;3.05;0.90;;;5.50;99.90;;;;;;5166289;28;20043;-70
2023/03/28 10:39:29;;;;;;;1.17;0.90;;;5.90;99.90;;;;;;5176062;28;20047;-70
2023/03/28 10:42:04;;;;;;;2.80;1.05;;;5.70;99.90;;;;;;5147823;28;20049;-72
2023/03/28 10:44:39;;;;;;;2.47;1.02;;;5.70;99.90;;;;;;5194092;28;20341;-70
2023/03/28 10:47:15;;;;;;;1.08;0.90;;;6.90;99.90;;;;;;5190639;28;20028;-67
2023/03/28 10:49:52;;;;;;;1.45;0.93;;;7.10;99.90;;;;;;5193750;28;20530;-69
2023/03/28 10:52:36;;;;;;;0.80;0.80;;;7.80;99.90;;;;;;5205056;28;20112;-72
2023/03/28 10:55:22;;;;;;;0.70;0.70;;;6.80;99.90;;;;;;5174877;28;20040;-71
2023/03/28 10:58:07;;;;;;;0.55;0.55;;;5.50;99.90;;;;;;5161406;28;20037;-70
2023/03/28 11:01:10;;;;;;;0.60;0.60;;;4.50;99.90;;;;;;5154894;28;20057;-68
2023/03/28 11:04:20;;;;;;;1.38;1.25;;;4.00;1.00;;;;;;5183404;28;20782;-72
2023/03/28 11:06:57;;;;;;;2.60;0.77;;;5.20;99.90;;;;;;5112649;28;20053;-71
2023/03/28 11:09:51;;;;;;;3.22;1.52;;;6.20;99.90;;;;;;5156243;28;20257;-70
2023/03/28 11:12:28;;;;;;;0.63;0.63;;;7.50;99.90;;;;;;5157572;28;20360;-72
2023/03/28 11:15:45;;;;;;;0.75;0.75;;;7.70;99.90;;;;;;5157965;28;20101;-69
2023/03/28 11:18:35;;;;;;;2.05;1.00;;;7.60;99.90;;;;;;5126259;28;20043;-72
2023/03/28 11:21:34;;;;;;;1.00;0.77;;;7.70;99.90;;;;;;5107664;28;20035;-70
2023/03/28 11:24:44;;;;;;;1.25;0.77;;;8.30;99.90;;;;;;5119581;28;20025;-69
2023/03/28 11:27:42;;;;;;;3.03;0.75;;;8.20;99.90;;;;;;5114545;28;20050;-72
2023/03/28 11:30:24;;;;;;;1.58;0.77;;;7.10;99.90;;;;;;5157214;28;20048;-69
2023/03/28 11:33:11;;;;;;;1.58;1.00;;;7.10;99.90;;;;;;5157236;28;20064;-66
2023/03/28 11:35:55;;;;;;;0.95;0.60;;;6.60;99.90;;;;;;5162203;28;20051;-72
2023/03/28 11:38:33;;;;;;;1.40;0.60;;;6.70;99.90;;;;;;5178379;28;20029;-70
2023/03/28 11:41:22;;;;;;;0.80;0.80;;;7.60;99.90;;;;;;5194525;28;20491;-68
2023/03/28 11:44:18;;;;;;;0.90;0.88;;;8.40;99.90;;;;;;5176373;28;20043;-70
2023/03/28 11:47:04;;;;;;;0.70;0.70;;;9.10;99.90;;;;;;5192578;28;20398;-73
2023/03/28 11:49:42;;;;;;;1.40;0.80;;;10.00;99.90;;;;;;5193667;28;20037;-70
2023/03/28 11:52:25;;;;;;;2.08;0.95;;;9.50;99.90;;;;;;5159162;28;20029;-69
2023/03/28 11:55:02;;;;;;;1.70;1.10;;;9.30;99.90;;;;;;5160473;28;20033;-66
2023/03/28 11:57:54;;;;;;;0.60;0.60;;;9.00;99.90;;;;;;5194924;28;20398;-66
2023/03/28 12:00:35;;;;;;;0.82;0.73;;;9.20;99.90;;;;;;5172956;28;20056;-68
2023/03/28 12:03:11;;;;;;;2.15;1.17;;;9.20;99.90;;;;;;5195079;28;20043;-66
2023/03/28 12:05:49;;;;;;;1.88;0.82;;;9.60;99.90;;;;;;5171738;28;20294;-72
2023/03/28 12:08:39;;;;;;;1.63;0.95;;;9.40;99.90;;;;;;5170874;28;20034;-70
2023/03/28 12:11:22;;;;;;;1.33;1.00;;;10.30;99.90;;;;;;5175829;28;20372;-68
2023/03/28 12:14:05;;;;;;;1.30;1.20;;;8.40;99.90;;;;;;5176011;28;20041;-71
2023/03/28 12:16:46;;;;;;;4.65;0.82;;;7.50;99.90;;;;;;5157799;28;20245;-71
2023/03/28 12:19:47;;;;;;;2.28;0.98;;;6.40;99.90;;;;;;5194119;28;20025;-71
2023/03/28 12:22:31;;;;;;;1.40;0.80;;;5.80;99.90;;;;;;5160624;28;20041;-69
2023/03/28 12:25:38;;;;;;;0.70;0.70;;;5.70;99.90;;;;;;5160093;28;20021;-69
2023/03/28 12:28:28;;;;;;;1.45;0.90;;;7.00;99.90;;;;;;5160823;28;20120;-71
2023/03/28 12:31:06;;;;;;;1.40;0.90;;;7.30;99.90;;;;;;5174930;28;20313;-70
2023/03/28 12:34:06;;;;;;;0.90;0.65;;;7.10;99.90;;;;;;5159984;28;20056;-69
2023/03/28 12:37:01;;;;;;;1.60;1.23;;;8.20;99.90;;;;;;5174904;28;20029;-70
2023/03/28 12:39:56;;;;;;;1.83;0.77;;;7.70;99.90;;;;;;5176566;28;20033;-70
2023/03/28 12:42:28;;;;;;;0.73;0.70;;;7.80;99.90;;;;;;5175700;28;20052;-70
2023/03/28 12:45:03;;;;;;;2.50;0.95;;;8.70;99.90;;;;;;5159891;28;20037;-69
2023/03/28 12:47:46;;;;;;;0.73;0.68;;;8.50;99.90;;;;;;5173790;28;20025;-71
2023/03/28 12:50:32;;;;;;;0.77;0.73;;;9.00;99.90;;;;;;5193080;28;20029;-70
2023/03/28 12:53:07;;;;;;;0.80;0.80;;;8.30;99.90;;;;;;5191853;28;20025;-70
2023/03/28 12:55:50;;;;;;;2.33;1.00;;;9.10;99.90;;;;;;5159847;28;20051;-70
2023/03/28 12:58:33;;;;;;;0.85;0.85;;;9.70;99.90;;;;;;5193542;28;20017;-67
2023/03/28 13:01:07;;;;;;;2.90;0.93;;;9.70;99.90;;;;;;5191692;28;20033;-68
2023/03/28 13:03:56;;;;;;;2.33;0.93;;;9.90;99.90;;;;;;5192841;28;20045;-70
2023/03/28 13:06:41;;;;;;;0.95;0.70;;;10.00;99.90;;;;;;5181215;28;20061;-68
2023/03/28 13:09:45;;;;;;;1.42;0.90;;;9.40;99.90;;;;;;5161108;28;20093;-68
2023/03/28 13:12:55;;;;;;;0.73;0.73;;;8.50;99.90;;;;;;5193890;28;20040;-70
2023/03/28 13:15:33;;;;;;;3.05;0.80;;;8.60;99.90;;;;;;5137593;28;20119;-68
2023/03/28 13:18:18;;;;;;;1.42;0.80;;;8.20;99.90;;;;;;5166267;28;20051;-70
2023/03/28 13:20:51;;;;;;;0.93;0.85;;;8.30;99.90;;;;;;5171525;28;20044;-72
2023/03/28 13:23:33;;;;;;;0.70;0.70;;;8.20;99.90;;;;;;5170218;28;20028;-65
2023/03/28 13:26:08;;;;;;;1.70;0.90;;;7.50;99.90;;;;;;5167060;28;20225;-69
2023/03/28 13:28:43;;;;;;;1.30;1.10;;;6.70;99.90;;;;;;5200790;28;20040;-69
2023/03/28 13:31:28;;;;;;;0.70;0.70;;;6.30;99.90;;;;;;5188001;28;20172;-67
2023/03/28 13:34:01;;;;;;;;;;;6.30;99.90;;;;;;5172532;28;20039;-70
2023/03/28 13:36:34;;;;;;;1.10;1.02;;;7.30;99.90;;;;;;5190930;28;19919;-71
2023/03/28 13:39:20;;;;;;;2.15;0.98;;;8.70;99.90;;;;;;5159000;28;20059;-72
2023/03/28 13:41:53;;;;;;;1.08;0.88;;;10.00;99.90;;;;;;5192414;28;20025;-67
2023/03/28 13:44:44;;;;;;;1.37;1.00;;;9.00;99.90;;;;;;5175221;28;20035;-70
2023/03/28 13:47:39;;;;;;;2.58;0.93;;;8.30;99.90;;;;;;5171401;28;20267;-66
2023/03/28 13:50:34;;;;;;;0.80;0.80;;;8.70;99.90;;;;;;5158381;28;20120;-70
2023/03/28 13:53:07;;;;;;;0.85;0.80;;;10.10;99.90;;;;;;5178159;28;20037;-68
2023/03/28 13:55:42;;;;;;;1.25;0.80;;;9.20;99.90;;;;;;5158516;28;20060;-68
2023/03/28 13:58:14;;;;;;;1.02;1.00;;;9.60;99.90;;;;;;5157613;28;20021;-68
2023/03/28 14:00:48;;;;;;;1.55;1.02;;;9.10;99.90;;;;;;5172553;28;20037;-70